createdAt,value
2022-12-23T00:01:24.054Z,29.22
2022-12-23T00:03:53.490Z,28.96
2022-12-23T00:06:22.064Z,28.71
2022-12-23T00:08:50.244Z,28.66
2022-12-23T00:11:20.783Z,28.09
2022-12-23T00:14:06.654Z,28.11
2022-12-23T00:16:36.684Z,27.53
2022-12-23T00:19:06.766Z,27.57
2022-12-23T00:21:35.950Z,27.40
2022-12-23T00:24:04.009Z,26.85
2022-12-23T00:26:32.029Z,26.65
2022-12-23T00:29:00.614Z,26.85
2022-12-23T00:31:28.754Z,26.75
2022-12-23T00:33:56.880Z,26.43
2022-12-23T00:36:28.604Z,26.72
2022-12-23T00:39:14.639Z,26.37
2022-12-23T00:42:00.149Z,26.53
2022-12-23T00:44:28.186Z,26.21
2022-12-23T00:46:56.234Z,25.97
2022-12-23T00:49:41.966Z,26.50
2022-12-23T00:52:12.916Z,26.03
2022-12-23T00:54:41.087Z,26.24
2022-12-23T00:57:09.068Z,25.97
2022-12-23T00:59:37.125Z,26.21
2022-12-23T01:02:22.580Z,26.08
2022-12-23T01:05:08.272Z,25.69
2022-12-23T01:07:37.603Z,25.94
2022-12-23T01:10:06.315Z,25.82
2022-12-23T01:12:34.275Z,26.06
2022-12-23T01:15:02.423Z,25.76
2022-12-23T01:17:30.947Z,25.72
2022-12-23T01:19:58.962Z,25.75
2022-12-23T01:22:26.977Z,25.70
2022-12-23T01:24:56.469Z,25.57
2022-12-23T01:27:24.434Z,25.48
2022-12-23T01:29:52.381Z,25.58
2022-12-23T01:32:20.436Z,25.60
2022-12-23T01:34:48.526Z,25.90
2022-12-23T01:37:16.524Z,25.73
2022-12-23T01:39:44.566Z,25.85
2022-12-23T01:42:33.658Z,25.78
2022-12-23T01:45:03.051Z,25.58
2022-12-23T01:47:36.967Z,25.80
2022-12-23T01:50:10.383Z,25.74
2022-12-23T01:52:44.622Z,25.70
2022-12-23T01:55:15.377Z,25.70
2022-12-23T01:57:46.076Z,25.59
2022-12-23T02:00:32.681Z,25.56
2022-12-23T02:03:17.813Z,25.75
2022-12-23T02:05:47.298Z,25.83
2022-12-23T02:08:34.690Z,25.57
2022-12-23T02:11:38.965Z,25.75
2022-12-23T02:14:42.611Z,25.68
2022-12-23T02:17:18.765Z,25.65
2022-12-23T02:20:11.148Z,26.75
2022-12-23T02:23:09.311Z,27.84
2022-12-23T02:25:54.053Z,28.09
2022-12-23T02:28:47.235Z,27.87
2022-12-23T02:31:25.519Z,27.49
2022-12-23T02:34:01.752Z,27.47
2022-12-23T02:36:39.372Z,27.21
2022-12-23T02:39:10.944Z,27.37
2022-12-23T02:41:44.283Z,26.97
2022-12-23T02:44:30.259Z,27.32
2022-12-23T02:47:05.470Z,26.85
2022-12-23T02:49:37.962Z,26.80
2022-12-23T02:52:11.518Z,26.75
2022-12-23T02:54:46.433Z,26.57
2022-12-23T02:57:18.930Z,26.68
2022-12-23T02:59:51.015Z,26.58
2022-12-23T03:02:21.428Z,26.58
2022-12-23T03:04:49.787Z,26.52
2022-12-23T03:07:21.755Z,26.14
2022-12-23T03:09:59.171Z,26.39
2022-12-23T03:12:38.304Z,26.13
2022-12-23T03:15:25.662Z,26.04
2022-12-23T03:18:05.817Z,26.29
2022-12-23T03:20:44.025Z,26.14
2022-12-23T03:23:22.929Z,25.78
2022-12-23T03:25:59.652Z,25.95
2022-12-23T03:28:35.124Z,25.72
2022-12-23T03:31:08.892Z,25.62
2022-12-23T03:33:42.087Z,25.90
2022-12-23T03:36:16.725Z,25.59
2022-12-23T03:38:46.170Z,25.38
2022-12-23T03:41:19.796Z,25.28
2022-12-23T03:43:53.369Z,25.61
2022-12-23T03:46:29.624Z,25.37
2022-12-23T03:49:02.062Z,25.07
2022-12-23T03:51:35.132Z,25.15
2022-12-23T03:54:05.864Z,25.30
2022-12-23T03:56:38.463Z,25.01
2022-12-23T03:59:13.857Z,25.07
2022-12-23T04:01:50.030Z,24.75
2022-12-23T04:04:25.947Z,25.00
2022-12-23T04:06:58.584Z,24.50
2022-12-23T04:09:29.210Z,24.62
2022-12-23T04:11:59.069Z,24.74
2022-12-23T04:14:27.044Z,24.65
2022-12-23T04:16:57.258Z,24.33
2022-12-23T04:19:26.862Z,24.67
2022-12-23T04:21:56.839Z,24.48
2022-12-23T04:24:25.104Z,24.11
2022-12-23T04:26:53.016Z,24.47
2022-12-23T04:29:21.043Z,24.39
2022-12-23T04:31:49.024Z,24.13
2022-12-23T04:34:17.127Z,24.26
2022-12-23T04:36:46.463Z,24.03
2022-12-23T04:39:14.538Z,24.07
2022-12-23T04:41:42.623Z,24.16
2022-12-23T04:44:10.631Z,24.00
2022-12-23T04:46:38.594Z,24.06
2022-12-23T04:49:06.765Z,24.06
2022-12-23T04:51:35.305Z,23.99
2022-12-23T04:54:05.036Z,23.73
2022-12-23T04:56:33.017Z,23.77
2022-12-23T04:59:02.352Z,23.78
2022-12-23T05:01:30.844Z,23.73
2022-12-23T05:03:58.969Z,23.98
2022-12-23T05:06:26.976Z,23.64
2022-12-23T05:08:55.047Z,23.73
2022-12-23T05:11:24.405Z,23.74
2022-12-23T05:13:52.411Z,23.80
2022-12-23T05:16:20.725Z,23.53
2022-12-23T05:18:48.770Z,23.36
2022-12-23T05:21:17.016Z,23.33
2022-12-23T05:23:45.135Z,23.46
2022-12-23T05:26:13.132Z,23.35
2022-12-23T05:28:42.999Z,23.46
2022-12-23T05:31:11.857Z,23.39
2022-12-23T05:33:40.295Z,23.74
2022-12-23T05:36:08.828Z,23.32
2022-12-23T05:38:36.811Z,23.39
2022-12-23T05:41:05.655Z,23.16
2022-12-23T05:43:33.822Z,23.09
2022-12-23T05:46:03.087Z,23.13
2022-12-23T05:48:31.123Z,23.11
2022-12-23T05:50:59.151Z,23.01
2022-12-23T05:53:27.441Z,23.20
2022-12-23T05:55:55.446Z,22.96
2022-12-23T05:58:23.999Z,22.68
2022-12-23T06:00:51.982Z,22.86
2022-12-23T06:03:22.103Z,22.79
2022-12-23T06:05:51.927Z,22.58
2022-12-23T06:08:20.036Z,22.75
2022-12-23T06:10:48.352Z,22.75
2022-12-23T06:13:16.302Z,22.69
2022-12-23T06:15:44.438Z,22.63
2022-12-23T06:18:12.513Z,22.71
2022-12-23T06:20:41.897Z,22.32
2022-12-23T06:23:09.826Z,22.15
2022-12-23T06:25:37.798Z,22.44
2022-12-23T06:28:07.648Z,22.65
2022-12-23T06:30:35.853Z,22.54
2022-12-23T06:33:04.032Z,22.32
2022-12-23T06:35:32.040Z,22.24
2022-12-23T06:38:01.356Z,22.29
2022-12-23T06:40:29.811Z,22.21
2022-12-23T06:42:57.822Z,22.10
2022-12-23T06:45:25.834Z,22.22
2022-12-23T06:47:53.934Z,22.32
2022-12-23T06:50:22.035Z,22.58
2022-12-23T06:52:50.079Z,22.59
2022-12-23T06:55:19.533Z,22.37
2022-12-23T06:57:47.468Z,22.27
2022-12-23T07:00:16.885Z,22.15
2022-12-23T07:02:45.076Z,22.36
2022-12-23T07:05:13.176Z,22.26
2022-12-23T07:07:41.418Z,21.95
2022-12-23T07:10:10.739Z,22.09
2022-12-23T07:12:42.634Z,21.95
2022-12-23T07:15:14.067Z,22.14
2022-12-23T07:17:41.910Z,22.06
2022-12-23T07:20:12.984Z,21.92
2022-12-23T07:22:40.966Z,22.14
2022-12-23T07:25:09.907Z,22.08
2022-12-23T07:27:37.987Z,22.17
2022-12-23T07:30:08.999Z,21.84
2022-12-23T07:32:36.960Z,22.08
2022-12-23T07:35:05.303Z,22.04
2022-12-23T07:37:33.214Z,22.19
2022-12-23T07:40:08.080Z,22.05
2022-12-23T07:42:46.066Z,21.96
2022-12-23T07:45:16.454Z,21.88
2022-12-23T07:47:44.624Z,22.25
2022-12-23T07:50:13.297Z,21.90
2022-12-23T07:52:41.296Z,21.89
2022-12-23T07:55:09.914Z,22.10
2022-12-23T07:57:38.567Z,22.06
2022-12-23T08:00:11.195Z,21.95
2022-12-23T08:02:43.938Z,21.90
2022-12-23T08:05:13.156Z,22.11
2022-12-23T08:07:41.391Z,22.01
2022-12-23T08:10:10.418Z,21.98
2022-12-23T08:12:38.452Z,22.07
2022-12-23T08:15:07.807Z,21.86
2022-12-23T08:17:35.829Z,22.10
2022-12-23T08:20:05.700Z,21.97
2022-12-23T08:22:33.834Z,21.80
2022-12-23T08:25:03.040Z,21.71
2022-12-23T08:27:31.200Z,21.70
2022-12-23T08:29:59.149Z,21.69
2022-12-23T08:32:28.292Z,21.72
2022-12-23T08:34:56.933Z,21.66
2022-12-23T08:37:26.527Z,21.58
2022-12-23T08:39:54.527Z,21.62
2022-12-23T08:42:22.495Z,21.72
2022-12-23T08:44:50.442Z,21.78
2022-12-23T08:47:18.429Z,21.59
2022-12-23T08:49:46.388Z,21.73
2022-12-23T08:52:14.311Z,21.68
2022-12-23T08:54:43.707Z,21.80
2022-12-23T08:57:11.618Z,22.01
2022-12-23T08:59:39.502Z,21.86
2022-12-23T09:02:07.882Z,21.69
2022-12-23T09:04:37.608Z,21.69
2022-12-23T09:07:06.010Z,21.80
2022-12-23T09:09:34.040Z,21.90
2022-12-23T09:12:03.390Z,21.76
2022-12-23T09:14:31.331Z,21.70
2022-12-23T09:16:59.302Z,21.65
2022-12-23T09:19:27.212Z,21.71
2022-12-23T09:21:55.198Z,21.73
2022-12-23T09:24:23.196Z,21.57
2022-12-23T09:26:51.113Z,21.62
2022-12-23T09:29:20.471Z,21.80
2022-12-23T09:31:48.519Z,21.61
2022-12-23T09:34:16.543Z,21.80
2022-12-23T09:36:44.509Z,21.47
2022-12-23T09:39:12.636Z,21.47
2022-12-23T09:41:50.064Z,21.53
2022-12-23T09:44:36.099Z,21.38
2022-12-23T09:47:07.000Z,21.22
2022-12-23T09:49:35.541Z,21.41
2022-12-23T09:52:10.198Z,21.14
2022-12-23T09:54:43.183Z,21.16
2022-12-23T09:57:22.445Z,21.05
2022-12-23T10:00:05.741Z,21.29
2022-12-23T10:02:48.340Z,21.19
2022-12-23T10:05:26.343Z,21.13
2022-12-23T10:07:59.750Z,20.99
2022-12-23T10:10:36.448Z,21.17
2022-12-23T10:13:08.117Z,21.15
2022-12-23T10:15:43.404Z,20.99
2022-12-23T10:18:18.674Z,20.88
2022-12-23T10:20:52.054Z,20.70
2022-12-23T10:23:28.767Z,20.86
2022-12-23T10:25:56.981Z,21.10
2022-12-23T10:28:29.858Z,21.02
2022-12-23T10:31:31.033Z,20.73
2022-12-23T10:34:01.419Z,21.02
2022-12-23T10:36:41.506Z,20.86
2022-12-23T10:39:20.376Z,20.78
2022-12-23T10:41:56.733Z,20.88
2022-12-23T10:44:41.812Z,21.23
2022-12-23T10:47:21.029Z,20.98
2022-12-23T10:50:01.001Z,21.12
2022-12-23T10:52:31.415Z,21.33
2022-12-23T10:54:59.386Z,21.45
2022-12-23T10:57:27.691Z,21.37
2022-12-23T10:59:55.677Z,20.97
2022-12-23T11:02:46.443Z,21.27
2022-12-23T11:05:18.194Z,20.98
2022-12-23T11:07:47.439Z,20.88
2022-12-23T11:10:18.914Z,20.88
2022-12-23T11:12:49.468Z,21.21
2022-12-23T11:15:30.561Z,21.05
2022-12-23T11:18:06.404Z,20.73
2022-12-23T11:20:35.147Z,20.78
2022-12-23T11:23:05.010Z,20.78
2022-12-23T11:25:36.140Z,20.78
2022-12-23T11:28:09.408Z,20.71
2022-12-23T11:30:40.381Z,20.76
2022-12-23T11:33:23.513Z,20.79
2022-12-23T11:36:02.033Z,20.68
2022-12-23T11:38:30.184Z,20.80
2022-12-23T11:40:58.730Z,20.81
2022-12-23T11:43:28.507Z,20.84
2022-12-23T11:46:18.881Z,20.81
2022-12-23T11:48:54.335Z,20.71
2022-12-23T11:51:27.873Z,20.87
2022-12-23T11:54:01.205Z,20.56
2022-12-23T11:56:36.386Z,20.61
2022-12-23T11:59:07.998Z,20.76
2022-12-23T12:01:39.351Z,20.64
2022-12-23T12:04:13.632Z,20.63
2022-12-23T12:06:48.418Z,20.56
2022-12-23T12:09:23.550Z,20.41
2022-12-23T12:11:55.334Z,20.44
2022-12-23T12:14:29.777Z,20.47
2022-12-23T12:17:04.745Z,20.46
2022-12-23T12:19:37.832Z,20.42
2022-12-23T12:22:13.170Z,20.52
2022-12-23T12:24:45.669Z,20.38
2022-12-23T12:27:14.367Z,20.36
2022-12-23T12:29:49.374Z,20.39
2022-12-23T12:32:22.284Z,20.33
2022-12-23T12:34:54.615Z,20.38
2022-12-23T12:37:30.881Z,20.16
2022-12-23T12:40:03.627Z,20.27
2022-12-23T12:42:38.944Z,20.13
2022-12-23T12:45:17.637Z,20.26
2022-12-23T12:47:56.830Z,20.09
2022-12-23T12:50:34.217Z,20.04
2022-12-23T12:53:12.680Z,19.82
2022-12-23T12:55:46.292Z,19.99
2022-12-23T12:58:20.698Z,19.70
2022-12-23T13:01:01.236Z,19.85
2022-12-23T13:03:53.426Z,19.85
2022-12-23T13:06:29.962Z,19.77
2022-12-23T13:09:07.185Z,19.80
2022-12-23T13:11:45.055Z,19.90
2022-12-23T13:14:25.987Z,19.84
2022-12-23T13:17:03.216Z,19.85
2022-12-23T13:19:39.172Z,19.80
2022-12-23T13:22:11.108Z,19.64
2022-12-23T13:24:52.862Z,19.70
2022-12-23T13:27:24.724Z,19.73
2022-12-23T13:30:05.280Z,19.57
2022-12-23T13:33:00.849Z,19.43
2022-12-23T13:35:39.952Z,19.63
2022-12-23T13:38:22.030Z,19.70
2022-12-23T13:41:04.014Z,19.67
2022-12-23T13:43:43.361Z,19.55
2022-12-23T13:46:23.997Z,19.55
2022-12-23T13:49:00.714Z,19.59
2022-12-23T13:51:38.424Z,19.51
2022-12-23T13:54:19.200Z,19.38
2022-12-23T13:56:54.072Z,19.48
2022-12-23T13:59:22.125Z,19.83
2022-12-23T14:01:52.546Z,19.33
2022-12-23T14:04:37.810Z,19.44
2022-12-23T14:07:19.097Z,19.39
2022-12-23T14:09:53.217Z,19.42
2022-12-23T14:12:26.712Z,19.45
2022-12-23T14:15:23.000Z,19.26
2022-12-23T14:18:07.917Z,19.19
2022-12-23T14:20:46.411Z,19.39
2022-12-23T14:23:30.576Z,19.25
2022-12-23T14:26:15.863Z,19.42
2022-12-23T14:28:57.207Z,19.31
2022-12-23T14:31:31.490Z,19.10
2022-12-23T14:34:23.987Z,19.12
2022-12-23T14:37:25.318Z,19.18
2022-12-23T14:39:54.123Z,19.15
2022-12-23T14:42:37.053Z,19.27
2022-12-23T14:45:35.463Z,19.99
2022-12-23T14:48:04.714Z,20.68
2022-12-23T14:50:41.101Z,20.68
2022-12-23T14:53:23.844Z,20.55
2022-12-23T14:56:11.462Z,20.61
2022-12-23T14:59:14.546Z,20.40
2022-12-23T15:01:44.611Z,20.91
2022-12-23T15:04:22.150Z,21.08
2022-12-23T15:06:53.265Z,21.28
2022-12-23T15:09:27.249Z,21.12
2022-12-23T15:11:56.917Z,21.21
2022-12-23T15:14:32.879Z,21.15
2022-12-23T15:17:01.583Z,21.41
2022-12-23T15:19:29.937Z,21.55
2022-12-23T15:22:20.720Z,21.59
2022-12-23T15:24:50.512Z,21.57
2022-12-23T15:27:29.410Z,21.49
2022-12-23T15:30:00.093Z,21.13
2022-12-23T15:32:30.540Z,21.07
2022-12-23T15:35:03.561Z,20.84
2022-12-23T15:37:32.783Z,20.79
2022-12-23T15:40:09.955Z,20.60
2022-12-23T15:42:47.280Z,20.30
2022-12-23T15:45:43.957Z,20.17
2022-12-23T15:48:25.145Z,20.20
2022-12-23T15:50:56.975Z,20.13
2022-12-23T15:53:31.554Z,20.15
2022-12-23T15:56:01.617Z,20.13
2022-12-23T15:58:33.530Z,20.25
2022-12-23T16:01:02.954Z,20.25
2022-12-23T16:03:35.856Z,20.17
2022-12-23T16:06:09.094Z,20.24
2022-12-23T16:08:37.440Z,20.45
2022-12-23T16:11:13.494Z,20.79
2022-12-23T16:13:47.372Z,20.98
2022-12-23T16:16:40.361Z,20.74
2022-12-23T16:19:37.720Z,20.82
2022-12-23T16:22:08.179Z,20.84
2022-12-23T16:24:36.472Z,21.01
2022-12-23T16:27:04.931Z,20.94
2022-12-23T16:29:34.496Z,20.94
2022-12-23T16:32:03.959Z,21.12
2022-12-23T16:34:32.587Z,21.13
2022-12-23T16:37:00.572Z,21.30
2022-12-23T16:39:28.527Z,21.34
2022-12-23T16:41:56.477Z,21.54
2022-12-23T16:44:24.479Z,21.93
2022-12-23T16:46:53.231Z,22.23
2022-12-23T16:49:28.135Z,23.60
2022-12-23T16:51:59.472Z,23.78
2022-12-23T16:54:27.450Z,23.91
2022-12-23T16:56:55.484Z,24.15
2022-12-23T16:59:24.890Z,24.34
2022-12-23T17:01:58.023Z,24.56
2022-12-23T17:04:30.709Z,24.64
2022-12-23T17:06:58.614Z,24.74
2022-12-23T17:09:26.652Z,24.62
2022-12-23T17:11:55.249Z,24.14
2022-12-23T17:16:52.600Z,23.54
2022-12-23T17:19:27.936Z,23.08
2022-12-23T17:22:02.284Z,24.04
2022-12-23T17:24:31.299Z,23.81
2022-12-23T17:26:59.293Z,23.26
2022-12-23T17:29:28.369Z,22.85
2022-12-23T17:31:56.493Z,22.75
2022-12-23T17:34:25.715Z,22.66
2022-12-23T17:36:54.205Z,22.50
2022-12-23T17:39:23.658Z,22.34
2022-12-23T17:41:52.111Z,22.05
2022-12-23T17:44:20.308Z,21.71
2022-12-23T17:46:48.621Z,21.42
2022-12-23T17:49:16.632Z,21.28
2022-12-23T17:51:44.765Z,21.14
2022-12-23T17:54:24.087Z,20.88
2022-12-23T17:56:52.947Z,20.90
2022-12-23T17:59:21.468Z,20.69
2022-12-23T18:01:49.637Z,20.71
2022-12-23T18:04:17.727Z,20.32
2022-12-23T18:06:45.715Z,20.33
2022-12-23T18:09:13.734Z,20.32
2022-12-23T18:11:45.917Z,20.06
2022-12-23T18:14:18.765Z,20.10
2022-12-23T18:16:46.916Z,19.92
2022-12-23T18:19:18.884Z,19.79
2022-12-23T18:21:47.699Z,19.82
2022-12-23T18:24:16.035Z,19.73
2022-12-23T18:26:46.220Z,19.46
2022-12-23T18:29:14.165Z,19.49
2022-12-23T18:31:51.462Z,19.14
2022-12-23T18:34:21.510Z,19.25
2022-12-23T18:36:51.758Z,19.20
2022-12-23T18:39:20.253Z,19.10
2022-12-23T18:41:50.023Z,18.69
2022-12-23T18:44:20.697Z,18.75
2022-12-23T18:46:49.396Z,18.89
2022-12-23T18:49:17.570Z,18.59
2022-12-23T18:51:46.024Z,18.54
2022-12-23T18:54:15.284Z,18.77
2022-12-23T18:56:43.436Z,18.54
2022-12-23T18:59:21.425Z,18.07
2022-12-23T19:01:56.156Z,17.97
2022-12-23T19:04:24.433Z,18.27
2022-12-23T19:06:52.403Z,18.35
2022-12-23T19:09:23.001Z,18.01
2022-12-23T19:11:52.789Z,17.93
2022-12-23T19:14:22.279Z,18.13
2022-12-23T19:16:52.439Z,17.72
2022-12-23T19:19:21.222Z,18.06
2022-12-23T19:21:49.212Z,17.66
2022-12-23T19:24:17.171Z,17.96
2022-12-23T19:26:45.104Z,17.96
2022-12-23T19:29:13.194Z,17.97
2022-12-23T19:31:42.657Z,17.86
2022-12-23T19:34:15.124Z,17.84
2022-12-23T19:36:44.567Z,17.95
2022-12-23T19:39:16.801Z,17.68
2022-12-23T19:41:45.734Z,17.71
2022-12-23T19:44:13.810Z,17.69
2022-12-23T19:46:43.308Z,17.61
2022-12-23T19:49:17.463Z,17.55
2022-12-23T19:51:48.213Z,17.36
2022-12-23T19:54:16.395Z,17.64
2022-12-23T19:56:44.780Z,17.80
2022-12-23T19:59:13.906Z,17.41
2022-12-23T20:01:43.340Z,17.38
2022-12-23T20:04:11.410Z,17.70
2022-12-23T20:06:40.106Z,17.57
2022-12-23T20:09:09.652Z,17.40
2022-12-23T20:11:39.493Z,17.43
2022-12-23T20:14:07.879Z,17.50
2022-12-23T20:16:37.207Z,17.53
2022-12-23T20:19:07.279Z,17.43
2022-12-23T20:21:37.377Z,17.63
2022-12-23T20:24:05.922Z,17.55
2022-12-23T20:26:34.225Z,17.84
2022-12-23T20:29:02.355Z,17.60
2022-12-23T20:31:32.988Z,17.71
2022-12-23T20:34:02.605Z,17.43
2022-12-23T20:36:33.426Z,17.54
2022-12-23T20:39:03.488Z,17.23
2022-12-23T20:41:32.912Z,17.33
2022-12-23T20:46:49.381Z,17.40
2022-12-23T20:49:17.318Z,17.22
2022-12-23T20:51:46.657Z,17.31
2022-12-23T20:54:14.683Z,16.79
2022-12-23T20:56:42.683Z,16.74
2022-12-23T20:59:10.705Z,17.08
2022-12-23T21:01:40.441Z,17.10
2022-12-23T21:04:11.513Z,16.62
2022-12-23T21:06:40.060Z,16.66
2022-12-23T21:09:12.368Z,16.80
2022-12-23T21:11:43.036Z,16.68
2022-12-23T21:14:11.666Z,17.31
2022-12-23T21:16:40.532Z,17.37
2022-12-23T21:19:17.671Z,17.64
2022-12-23T21:21:46.678Z,18.03
2022-12-23T21:24:16.629Z,19.10
2022-12-23T21:26:49.008Z,19.29
2022-12-23T21:29:22.379Z,19.43
2022-12-23T21:31:50.535Z,19.80
2022-12-23T21:34:18.440Z,19.67
2022-12-23T21:36:46.467Z,19.66
2022-12-23T21:39:17.092Z,20.00
2022-12-23T21:41:45.912Z,20.86
2022-12-23T21:44:15.019Z,22.32
2022-12-23T21:46:43.229Z,23.98
2022-12-23T21:49:11.845Z,26.64
2022-12-23T21:51:41.309Z,26.95
2022-12-23T21:54:11.128Z,27.05
2022-12-23T21:56:41.766Z,27.88
2022-12-23T21:59:12.837Z,29.55
2022-12-23T22:01:41.722Z,29.83
2022-12-23T22:04:09.991Z,29.85
2022-12-23T22:06:39.886Z,30.72
2022-12-23T22:09:08.944Z,31.58
2022-12-23T22:11:38.200Z,31.81
2022-12-23T22:14:09.807Z,30.96
2022-12-23T22:16:37.857Z,30.64
2022-12-23T22:19:08.642Z,29.86
2022-12-23T22:21:39.546Z,28.88
2022-12-23T22:24:08.683Z,27.62
2022-12-23T22:26:36.799Z,26.46
2022-12-23T22:29:07.672Z,25.78
2022-12-23T22:31:38.395Z,25.15
2022-12-23T22:34:07.760Z,24.58
2022-12-23T22:36:36.045Z,24.24
2022-12-23T22:39:05.912Z,23.74
2022-12-23T22:41:35.539Z,23.42
2022-12-23T22:44:03.530Z,22.96
2022-12-23T22:46:33.170Z,22.79
2022-12-23T22:49:01.097Z,22.67
2022-12-23T22:51:31.084Z,22.21
2022-12-23T22:53:59.724Z,22.18
2022-12-23T22:56:27.901Z,22.03
2022-12-23T22:58:56.104Z,21.80
2022-12-23T23:01:26.844Z,21.66
2022-12-23T23:03:59.284Z,21.78
2022-12-23T23:06:28.887Z,21.62
2022-12-23T23:08:58.049Z,21.47
2022-12-23T23:11:27.459Z,21.20
2022-12-23T23:13:56.328Z,21.42
2022-12-23T23:16:24.748Z,21.01
2022-12-23T23:18:53.807Z,21.16
2022-12-23T23:21:23.608Z,20.72
2022-12-23T23:23:51.544Z,21.09
2022-12-23T23:26:20.909Z,20.88
2022-12-23T23:28:49.213Z,20.83
2022-12-23T23:31:41.305Z,20.74
2022-12-23T23:34:05.278Z,20.70
2022-12-23T23:36:34.759Z,20.59
2022-12-23T23:39:02.695Z,20.56
2022-12-23T23:41:30.674Z,20.51
2022-12-23T23:43:58.612Z,20.60
2022-12-23T23:46:26.738Z,20.41
2022-12-23T23:48:54.855Z,20.44
2022-12-23T23:51:22.886Z,20.16
2022-12-23T23:53:52.265Z,20.18
2022-12-23T23:56:25.123Z,20.05
2022-12-23T23:58:53.968Z,19.99
